Arenas Valley, NM

5:59 AM MDT on August 22, 2014 (GMT -0600)
NM5SD | Change Station
CLOSE
Current Station
Personal Weather Station
Location: Silver City, NM
Elevation: 6165 ft
Nearby Weather Stations

Elev 6165 ft 32.79 °N, 108.23 °W | Updated 4 minutes ago

Overcast
Overcast
62.6 °F
Feels Like 62.6 °F
N
0.0
Wind Variable Wind from NW
Gusts 1.0 mph

Today
High -- | Low -- °F
--% Chance of Precip.
Yesterday
High -- | Low -- °F
Precip. -- in
6:40 AM 7:49 PM
Waning Crescent, 8% visible
Pressure 30.19 in
Visibility 10.0 miles
Clouds Overcast 6000 ft
Dew Point 52 °F
Humidity 67%
Rainfall 0.00 in
Snow Depth Not available.
UV 0 out of 12
Pollen 3.80 out of 12
Air Quality Not available.
Flu Activity Not available.
METAR KSVC 221135Z AUTO 27005KT 10SM OVC060 19/10 A3019 RMK AO2

More Conditions Fewer Conditions

Pressure 30.19 in
Visibility 10.0 miles
Clouds Overcast 6000 ft
Dew Point 52 °F
Humidity 67%
Rainfall 0.00 in
Snow Depth Not available.
UV 0 out of 12
Pollen 3.80 out of 12
Air Quality Not available.
Flu Activity Not available.
METAR KSVC 221135Z AUTO 27005KT 10SM OVC060 19/10 A3019 RMK AO2

More Conditions Fewer Conditions

10-Day Weather Forecast

Almanac

Astronomy

Aug. 22, 2014 Rise Set
Actual Time 6:40 AM MDT 7:49 PM MDT
Civil Twilight 6:15 AM MDT 8:15 PM MDT
Nautical Twilight 5:44 AM MDT 8:45 PM MDT
Astronomical Twilight 5:13 AM MDT 9:17 PM MDT
Moon 4:10 AM MDT 5:57 PM MDT
Length of Visible Light 14h 00m
Length of Day
13h 08m
Tomorrow will be 1m 51s shorter.
Waning Crescent, 8% of the Moon is Illuminated
Today
Waning Crescent
Aug 25
New
Sep 2
First Quarter
Sep 8
Full
Sep 15
Last Quarter

Today's Extremes

State Highs State Lows

Community

WunderPhotos

Upload Photos

1,746,151 photos uploaded!

WunderBlogs® & News

By Dr. Jeff Masters
Director of Meteorology, Weather Underground
By Kari Strenfel
Meteorologist, Weather Underground
By Christopher C. Burt
Weather Historian, Weather Underground
August 22, 2014
August 22, 2014
August 22, 2014

Nearby

Snow Depth

Station Depth Elevation
McKnight Cabin 0 in 9240 ft
Silver Creek Divide 14 in 9000 ft
Sierra Blanca 1 in 10280 ft
Senorita Divide #2 0 in 8600 ft
Quemazon 1 in 9500 ft

Earthquake Activity

City Distance Mag. Time & Date
Lordsburg, New Mexico 55 miles 3.1 10:13 PM MDT
2014-08-15
Minimum magnitude displayed is 2.5.

Coastal Water Temperatures

Place Temperature
No Stations Reporting

Nearby Weather Stations